Aquasco, Maryland
Current Conditions -  °F | °C
As of 9:58 PM on Monday 20 Oct 2014 (Local Time) from KADW Reporting Station
Clear Clear  
Wind Chill: 12°   Ceiling: Unl
Heat Index: 12°   Visibility: 10mi
Dew Point:   Wind: 7mph
Humidity: 71%   Direction: 170°S
Pressure: 29.96"   Gusts: NA
Location:  38.58°N, 76.73°W
Report Text: KADW 210158Z AUTO 17006KT 10SM CLR 12/07 A2996 RMK AO2 SLP152 T01190067 $
Loading
Personal Weather Stations






























Interactive Weather Map
Tropical Storm Tracking
New forecast layout! Learn more

10-Day Weather Forecast

Advertisements
Track Severe Weather on mobile